sensor_id;sensor_type;location;lat;lon;timestamp;P1;durP1;ratioP1;P2;durP2;ratioP2
15982;SDS011;14442;50.196;8.096;2024-02-23T05:47:47;0.73;;;0.23;;
15982;SDS011;14442;50.196;8.096;2024-02-23T05:50:14;0.40;;;0.10;;
15982;SDS011;14442;50.196;8.096;2024-02-23T05:52:42;0.33;;;0.10;;
15982;SDS011;14442;50.196;8.096;2024-02-23T05:55:09;0.70;;;0.30;;
15982;SDS011;14442;50.196;8.096;2024-02-23T05:57:36;0.70;;;0.20;;
15982;SDS011;14442;50.196;8.096;2024-02-23T06:00:03;0.70;;;0.13;;
15982;SDS011;14442;50.196;8.096;2024-02-23T06:02:30;0.40;;;0.30;;
15982;SDS011;14442;50.196;8.096;2024-02-23T06:04:57;1.50;;;0.20;;
15982;SDS011;14442;50.196;8.096;2024-02-23T06:07:24;0.60;;;0.20;;
15982;SDS011;14442;50.196;8.096;2024-02-23T06:09:55;0.63;;;0.23;;
15982;SDS011;14442;50.196;8.096;2024-02-23T06:12:22;0.47;;;0.20;;
15982;SDS011;14442;50.196;8.096;2024-02-23T06:14:50;0.20;;;0.17;;
15982;SDS011;14442;50.196;8.096;2024-02-23T06:17:17;2.33;;;0.37;;
15982;SDS011;14442;50.196;8.096;2024-02-23T06:19:44;1.33;;;0.20;;
15982;SDS011;14442;50.196;8.096;2024-02-23T06:22:10;0.23;;;0.20;;
15982;SDS011;14442;50.196;8.096;2024-02-23T06:24:37;0.90;;;0.10;;
15982;SDS011;14442;50.196;8.096;2024-02-23T06:27:06;0.10;;;0.10;;
15982;SDS011;14442;50.196;8.096;2024-02-23T06:29:33;0.30;;;0.20;;
15982;SDS011;14442;50.196;8.096;2024-02-23T06:32:00;1.53;;;0.23;;
15982;SDS011;14442;50.196;8.096;2024-02-23T06:34:28;1.17;;;0.30;;
15982;SDS011;14442;50.196;8.096;2024-02-23T06:36:54;0.40;;;0.20;;
15982;SDS011;14442;50.196;8.096;2024-02-23T06:39:21;0.97;;;0.30;;
15982;SDS011;14442;50.196;8.096;2024-02-23T06:41:48;0.40;;;0.30;;
15982;SDS011;14442;50.196;8.096;2024-02-23T06:44:16;0.37;;;0.17;;
15982;SDS011;14442;50.196;8.096;2024-02-23T06:46:43;0.30;;;0.20;;
15982;SDS011;14442;50.196;8.096;2024-02-23T06:49:10;2.47;;;0.33;;
15982;SDS011;14442;50.196;8.096;2024-02-23T06:51:37;0.77;;;0.30;;
15982;SDS011;14442;50.196;8.096;2024-02-23T06:54:05;1.70;;;0.80;;
15982;SDS011;14442;50.196;8.096;2024-02-23T06:56:33;3.60;;;0.97;;
15982;SDS011;14442;50.196;8.096;2024-02-23T06:59:00;1.67;;;0.57;;
15982;SDS011;14442;50.196;8.096;2024-02-23T07:01:28;1.83;;;0.70;;
15982;SDS011;14442;50.196;8.096;2024-02-23T07:03:56;2.50;;;0.70;;
15982;SDS011;14442;50.196;8.096;2024-02-23T07:06:23;4.40;;;1.43;;
15982;SDS011;14442;50.196;8.096;2024-02-23T07:08:50;2.03;;;0.60;;
15982;SDS011;14442;50.196;8.096;2024-02-23T07:11:17;1.37;;;0.60;;
15982;SDS011;14442;50.196;8.096;2024-02-23T07:13:44;1.20;;;0.40;;
15982;SDS011;14442;50.196;8.096;2024-02-23T07:16:11;0.77;;;0.43;;
15982;SDS011;14442;50.196;8.096;2024-02-23T07:18:39;2.50;;;0.80;;
15982;SDS011;14442;50.196;8.096;2024-02-23T07:21:06;2.00;;;0.50;;
15982;SDS011;14442;50.196;8.096;2024-02-23T07:23:33;2.10;;;0.57;;
15982;SDS011;14442;50.196;8.096;2024-02-23T07:26:00;0.37;;;0.37;;
15982;SDS011;14442;50.196;8.096;2024-02-23T07:28:27;1.83;;;1.07;;
15982;SDS011;14442;50.196;8.096;2024-02-23T07:30:53;2.33;;;0.40;;
15982;SDS011;14442;50.196;8.096;2024-02-23T07:33:20;1.97;;;0.40;;
15982;SDS011;14442;50.196;8.096;2024-02-23T07:35:48;0.70;;;0.30;;
15982;SDS011;14442;50.196;8.096;2024-02-23T07:38:15;2.43;;;0.40;;
15982;SDS011;14442;50.196;8.096;2024-02-23T07:40:42;1.70;;;0.40;;
15982;SDS011;14442;50.196;8.096;2024-02-23T07:43:09;1.03;;;0.40;;
15982;SDS011;14442;50.196;8.096;2024-02-23T07:45:36;0.67;;;0.20;;
15982;SDS011;14442;50.196;8.096;2024-02-23T07:48:03;1.97;;;0.30;;
15982;SDS011;14442;50.196;8.096;2024-02-23T07:50:31;1.93;;;0.50;;
15982;SDS011;14442;50.196;8.096;2024-02-23T07:52:59;1.23;;;0.60;;
15982;SDS011;14442;50.196;8.096;2024-02-23T07:55:25;0.43;;;0.30;;
15982;SDS011;14442;50.196;8.096;2024-02-23T07:57:52;1.07;;;0.30;;
15982;SDS011;14442;50.196;8.096;2024-02-23T08:00:22;1.30;;;0.60;;
15982;SDS011;14442;50.196;8.096;2024-02-23T08:02:49;0.60;;;0.20;;
15982;SDS011;14442;50.196;8.096;2024-02-23T08:05:16;1.93;;;0.50;;
15982;SDS011;14442;50.196;8.096;2024-02-23T08:07:43;1.03;;;0.37;;
15982;SDS011;14442;50.196;8.096;2024-02-23T08:10:11;0.90;;;0.30;;
15982;SDS011;14442;50.196;8.096;2024-02-23T08:12:38;0.70;;;0.30;;
15982;SDS011;14442;50.196;8.096;2024-02-23T08:15:06;0.90;;;0.40;;
15982;SDS011;14442;50.196;8.096;2024-02-23T08:17:33;1.53;;;0.40;;
15982;SDS011;14442;50.196;8.096;2024-02-23T08:20:00;1.17;;;0.30;;
15982;SDS011;14442;50.196;8.096;2024-02-23T08:22:27;0.87;;;0.20;;
15982;SDS011;14442;50.196;8.096;2024-02-23T08:24:53;0.67;;;0.40;;
15982;SDS011;14442;50.196;8.096;2024-02-23T08:27:21;0.30;;;0.30;;
15982;SDS011;14442;50.196;8.096;2024-02-23T08:29:48;2.30;;;0.40;;
15982;SDS011;14442;50.196;8.096;2024-02-23T08:32:15;2.03;;;0.40;;
15982;SDS011;14442;50.196;8.096;2024-02-23T08:34:42;1.23;;;0.50;;
15982;SDS011;14442;50.196;8.096;2024-02-23T08:37:09;0.30;;;0.27;;
15982;SDS011;14442;50.196;8.096;2024-02-23T08:39:37;1.33;;;0.63;;
15982;SDS011;14442;50.196;8.096;2024-02-23T08:42:04;1.10;;;0.23;;
15982;SDS011;14442;50.196;8.096;2024-02-23T08:44:32;0.73;;;0.20;;
15982;SDS011;14442;50.196;8.096;2024-02-23T08:46:59;0.77;;;0.67;;
15982;SDS011;14442;50.196;8.096;2024-02-23T08:49:27;0.60;;;0.30;;
15982;SDS011;14442;50.196;8.096;2024-02-23T08:51:53;0.83;;;0.30;;
15982;SDS011;14442;50.196;8.096;2024-02-23T08:54:21;1.37;;;0.20;;
15982;SDS011;14442;50.196;8.096;2024-02-23T08:56:48;1.33;;;0.50;;
15982;SDS011;14442;50.196;8.096;2024-02-23T08:59:14;1.83;;;0.40;;
15982;SDS011;14442;50.196;8.096;2024-02-23T09:01:42;0.30;;;0.30;;
15982;SDS011;14442;50.196;8.096;2024-02-23T09:04:11;0.30;;;0.20;;
15982;SDS011;14442;50.196;8.096;2024-02-23T09:06:39;0.30;;;0.30;;
15982;SDS011;14442;50.196;8.096;2024-02-23T09:09:05;0.90;;;0.20;;
15982;SDS011;14442;50.196;8.096;2024-02-23T09:11:33;0.40;;;0.30;;
15982;SDS011;14442;50.196;8.096;2024-02-23T09:14:01;0.77;;;0.30;;
15982;SDS011;14442;50.196;8.096;2024-02-23T09:16:27;0.93;;;0.20;;
15982;SDS011;14442;50.196;8.096;2024-02-23T09:18:55;0.57;;;0.30;;
15982;SDS011;14442;50.196;8.096;2024-02-23T09:21:22;0.40;;;0.20;;
15982;SDS011;14442;50.196;8.096;2024-02-23T09:23:49;1.97;;;0.50;;
15982;SDS011;14442;50.196;8.096;2024-02-23T09:26:16;0.50;;;0.33;;
15982;SDS011;14442;50.196;8.096;2024-02-23T09:28:43;0.40;;;0.20;;
15982;SDS011;14442;50.196;8.096;2024-02-23T09:31:10;0.20;;;0.20;;
15982;SDS011;14442;50.196;8.096;2024-02-23T09:33:36;1.50;;;0.30;;
15982;SDS011;14442;50.196;8.096;2024-02-23T09:36:05;1.13;;;0.27;;
15982;SDS011;14442;50.196;8.096;2024-02-23T09:38:32;0.77;;;0.30;;
15982;SDS011;14442;50.196;8.096;2024-02-23T09:40:58;0.20;;;0.20;;
15982;SDS011;14442;50.196;8.096;2024-02-23T09:43:26;1.03;;;0.30;;
15982;SDS011;14442;50.196;8.096;2024-02-23T09:45:55;0.20;;;0.20;;
15982;SDS011;14442;50.196;8.096;2024-02-23T09:48:22;0.67;;;0.20;;
15982;SDS011;14442;50.196;8.096;2024-02-23T09:50:50;0.50;;;0.30;;
15982;SDS011;14442;50.196;8.096;2024-02-23T09:53:20;0.67;;;0.30;;
15982;SDS011;14442;50.196;8.096;2024-02-23T09:55:47;1.07;;;0.30;;
15982;SDS011;14442;50.196;8.096;2024-02-23T09:58:16;0.70;;;0.30;;
15982;SDS011;14442;50.196;8.096;2024-02-23T10:00:44;1.40;;;0.20;;
15982;SDS011;14442;50.196;8.096;2024-02-23T10:03:10;0.60;;;0.20;;
15982;SDS011;14442;50.196;8.096;2024-02-23T10:05:37;0.40;;;0.40;;
15982;SDS011;14442;50.196;8.096;2024-02-23T10:08:04;0.47;;;0.20;;
15982;SDS011;14442;50.196;8.096;2024-02-23T10:10:33;1.37;;;0.40;;
15982;SDS011;14442;50.196;8.096;2024-02-23T10:13:01;1.70;;;0.50;;
15982;SDS011;14442;50.196;8.096;2024-02-23T10:15:29;1.33;;;0.30;;
15982;SDS011;14442;50.196;8.096;2024-02-23T10:17:56;2.13;;;0.40;;
15982;SDS011;14442;50.196;8.096;2024-02-23T10:20:23;1.13;;;0.50;;
15982;SDS011;14442;50.196;8.096;2024-02-23T10:22:49;1.43;;;0.30;;
15982;SDS011;14442;50.196;8.096;2024-02-23T10:25:18;3.20;;;0.30;;
15982;SDS011;14442;50.196;8.096;2024-02-23T10:27:46;1.37;;;0.30;;
15982;SDS011;14442;50.196;8.096;2024-02-23T10:30:13;4.23;;;0.20;;
15982;SDS011;14442;50.196;8.096;2024-02-23T10:32:41;0.40;;;0.30;;
15982;SDS011;14442;50.196;8.096;2024-02-23T10:35:09;3.90;;;0.30;;
15982;SDS011;14442;50.196;8.096;2024-02-23T10:37:40;1.13;;;0.37;;
15982;SDS011;14442;50.196;8.096;2024-02-23T10:40:08;1.77;;;0.40;;
15982;SDS011;14442;50.196;8.096;2024-02-23T10:42:38;1.67;;;0.20;;
15982;SDS011;14442;50.196;8.096;2024-02-23T10:45:08;3.40;;;0.50;;
15982;SDS011;14442;50.196;8.096;2024-02-23T10:47:36;1.13;;;0.20;;
15982;SDS011;14442;50.196;8.096;2024-02-23T10:50:03;1.43;;;0.50;;
15982;SDS011;14442;50.196;8.096;2024-02-23T10:52:32;1.23;;;0.30;;
15982;SDS011;14442;50.196;8.096;2024-02-23T10:55:01;1.10;;;0.33;;
15982;SDS011;14442;50.196;8.096;2024-02-23T10:57:29;1.80;;;0.30;;
15982;SDS011;14442;50.196;8.096;2024-02-23T10:59:57;1.67;;;0.33;;
15982;SDS011;14442;50.196;8.096;2024-02-23T11:02:26;1.33;;;0.23;;
15982;SDS011;14442;50.196;8.096;2024-02-23T11:04:55;1.63;;;0.30;;
15982;SDS011;14442;50.196;8.096;2024-02-23T11:07:26;1.60;;;0.40;;
15982;SDS011;14442;50.196;8.096;2024-02-23T11:09:58;1.33;;;0.30;;
15982;SDS011;14442;50.196;8.096;2024-02-23T11:12:25;1.47;;;0.40;;
15982;SDS011;14442;50.196;8.096;2024-02-23T11:14:56;0.90;;;0.43;;
15982;SDS011;14442;50.196;8.096;2024-02-23T11:17:25;1.50;;;0.30;;
15982;SDS011;14442;50.196;8.096;2024-02-23T11:19:55;0.63;;;0.20;;
15982;SDS011;14442;50.196;8.096;2024-02-23T11:22:25;0.87;;;0.30;;
15982;SDS011;14442;50.196;8.096;2024-02-23T11:24:59;1.07;;;0.60;;
15982;SDS011;14442;50.196;8.096;2024-02-23T11:27:29;1.17;;;0.37;;
15982;SDS011;14442;50.196;8.096;2024-02-23T11:29:59;1.30;;;0.30;;
15982;SDS011;14442;50.196;8.096;2024-02-23T11:32:36;0.50;;;0.17;;
15982;SDS011;14442;50.196;8.096;2024-02-23T11:35:05;0.43;;;0.23;;
15982;SDS011;14442;50.196;8.096;2024-02-23T11:37:33;0.30;;;0.20;;
15982;SDS011;14442;50.196;8.096;2024-02-23T11:40:11;0.50;;;0.30;;
15982;SDS011;14442;50.196;8.096;2024-02-23T11:42:39;0.40;;;0.30;;
15982;SDS011;14442;50.196;8.096;2024-02-23T11:45:08;0.57;;;0.27;;
15982;SDS011;14442;50.196;8.096;2024-02-23T11:47:37;0.60;;;0.47;;
15982;SDS011;14442;50.196;8.096;2024-02-23T11:50:04;1.23;;;0.30;;
15982;SDS011;14442;50.196;8.096;2024-02-23T11:52:34;1.63;;;0.20;;
15982;SDS011;14442;50.196;8.096;2024-02-23T11:55:01;0.83;;;0.30;;
15982;SDS011;14442;50.196;8.096;2024-02-23T11:57:30;0.83;;;0.23;;
15982;SDS011;14442;50.196;8.096;2024-02-23T11:59:57;0.40;;;0.20;;
15982;SDS011;14442;50.196;8.096;2024-02-23T12:02:23;0.60;;;0.40;;
15982;SDS011;14442;50.196;8.096;2024-02-23T12:04:52;0.67;;;0.40;;
15982;SDS011;14442;50.196;8.096;2024-02-23T12:07:18;0.50;;;0.30;;
15982;SDS011;14442;50.196;8.096;2024-02-23T12:09:46;2.63;;;0.30;;
15982;SDS011;14442;50.196;8.096;2024-02-23T12:12:14;0.23;;;0.20;;
15982;SDS011;14442;50.196;8.096;2024-02-23T12:14:41;1.23;;;0.40;;
15982;SDS011;14442;50.196;8.096;2024-02-23T12:17:08;0.40;;;0.30;;
15982;SDS011;14442;50.196;8.096;2024-02-23T12:19:37;0.67;;;0.20;;
15982;SDS011;14442;50.196;8.096;2024-02-23T12:22:05;0.80;;;0.30;;
15982;SDS011;14442;50.196;8.096;2024-02-23T12:24:32;0.20;;;0.20;;
15982;SDS011;14442;50.196;8.096;2024-02-23T12:27:00;0.50;;;0.40;;
15982;SDS011;14442;50.196;8.096;2024-02-23T12:29:27;0.70;;;0.30;;
15982;SDS011;14442;50.196;8.096;2024-02-23T12:32:02;0.90;;;0.30;;
15982;SDS011;14442;50.196;8.096;2024-02-23T12:34:29;0.60;;;0.30;;
15982;SDS011;14442;50.196;8.096;2024-02-23T12:36:56;0.30;;;0.27;;
15982;SDS011;14442;50.196;8.096;2024-02-23T12:39:24;0.20;;;0.20;;
15982;SDS011;14442;50.196;8.096;2024-02-23T12:41:51;0.37;;;0.30;;
15982;SDS011;14442;50.196;8.096;2024-02-23T12:44:18;0.57;;;0.33;;
15982;SDS011;14442;50.196;8.096;2024-02-23T12:46:45;0.60;;;0.30;;
15982;SDS011;14442;50.196;8.096;2024-02-23T12:49:12;0.40;;;0.20;;
15982;SDS011;14442;50.196;8.096;2024-02-23T12:51:39;0.70;;;0.30;;
15982;SDS011;14442;50.196;8.096;2024-02-23T12:54:05;0.93;;;0.30;;
15982;SDS011;14442;50.196;8.096;2024-02-23T12:56:34;1.53;;;0.20;;
15982;SDS011;14442;50.196;8.096;2024-02-23T12:59:00;0.30;;;0.20;;
15982;SDS011;14442;50.196;8.096;2024-02-23T13:01:27;0.30;;;0.30;;
15982;SDS011;14442;50.196;8.096;2024-02-23T13:03:54;1.07;;;0.20;;
15982;SDS011;14442;50.196;8.096;2024-02-23T13:06:21;0.20;;;0.20;;
15982;SDS011;14442;50.196;8.096;2024-02-23T13:08:48;1.23;;;0.30;;
15982;SDS011;14442;50.196;8.096;2024-02-23T13:11:15;0.30;;;0.20;;
15982;SDS011;14442;50.196;8.096;2024-02-23T13:13:43;1.80;;;0.20;;
15982;SDS011;14442;50.196;8.096;2024-02-23T13:16:10;0.80;;;0.30;;
15982;SDS011;14442;50.196;8.096;2024-02-23T13:18:39;0.20;;;0.20;;
15982;SDS011;14442;50.196;8.096;2024-02-23T13:21:06;0.50;;;0.30;;
15982;SDS011;14442;50.196;8.096;2024-02-23T13:23:33;0.37;;;0.20;;
15982;SDS011;14442;50.196;8.096;2024-02-23T13:26:01;0.77;;;0.40;;
15982;SDS011;14442;50.196;8.096;2024-02-23T13:28:28;0.57;;;0.30;;
15982;SDS011;14442;50.196;8.096;2024-02-23T13:30:56;0.53;;;0.40;;
15982;SDS011;14442;50.196;8.096;2024-02-23T13:33:22;0.30;;;0.30;;
15982;SDS011;14442;50.196;8.096;2024-02-23T13:35:50;0.30;;;0.20;;
15982;SDS011;14442;50.196;8.096;2024-02-23T13:38:18;0.33;;;0.20;;
15982;SDS011;14442;50.196;8.096;2024-02-23T13:40:45;0.23;;;0.20;;
15982;SDS011;14442;50.196;8.096;2024-02-23T13:43:12;0.20;;;0.20;;
15982;SDS011;14442;50.196;8.096;2024-02-23T13:45:47;0.87;;;0.20;;
15982;SDS011;14442;50.196;8.096;2024-02-23T13:48:16;0.23;;;0.13;;
15982;SDS011;14442;50.196;8.096;2024-02-23T13:50:44;0.30;;;0.20;;
15982;SDS011;14442;50.196;8.096;2024-02-23T13:53:11;0.30;;;0.23;;
15982;SDS011;14442;50.196;8.096;2024-02-23T13:55:38;0.60;;;0.30;;
15982;SDS011;14442;50.196;8.096;2024-02-23T13:58:05;1.43;;;0.20;;
15982;SDS011;14442;50.196;8.096;2024-02-23T14:00:32;0.27;;;0.20;;
15982;SDS011;14442;50.196;8.096;2024-02-23T14:02:58;0.50;;;0.20;;
15982;SDS011;14442;50.196;8.096;2024-02-23T14:05:27;2.23;;;0.40;;
15982;SDS011;14442;50.196;8.096;2024-02-23T14:07:53;3.40;;;0.60;;
15982;SDS011;14442;50.196;8.096;2024-02-23T14:10:20;4.53;;;1.00;;
15982;SDS011;14442;50.196;8.096;2024-02-23T14:12:47;2.53;;;0.80;;
15982;SDS011;14442;50.196;8.096;2024-02-23T14:15:15;3.03;;;0.80;;
15982;SDS011;14442;50.196;8.096;2024-02-23T14:17:42;4.27;;;1.07;;
15982;SDS011;14442;50.196;8.096;2024-02-23T14:20:09;1.33;;;0.70;;
15982;SDS011;14442;50.196;8.096;2024-02-23T14:22:38;2.10;;;0.50;;
15982;SDS011;14442;50.196;8.096;2024-02-23T14:25:05;3.70;;;0.40;;
15982;SDS011;14442;50.196;8.096;2024-02-23T14:27:33;8.30;;;0.70;;
15982;SDS011;14442;50.196;8.096;2024-02-23T14:29:59;5.87;;;1.10;;
15982;SDS011;14442;50.196;8.096;2024-02-23T14:32:26;2.67;;;0.60;;
15982;SDS011;14442;50.196;8.096;2024-02-23T14:34:53;1.73;;;0.60;;
15982;SDS011;14442;50.196;8.096;2024-02-23T14:37:22;2.30;;;0.83;;
15982;SDS011;14442;50.196;8.096;2024-02-23T14:39:50;1.90;;;0.60;;
15982;SDS011;14442;50.196;8.096;2024-02-23T14:42:17;7.77;;;0.73;;
15982;SDS011;14442;50.196;8.096;2024-02-23T14:44:44;4.00;;;0.80;;
15982;SDS011;14442;50.196;8.096;2024-02-23T14:47:11;4.87;;;0.57;;
15982;SDS011;14442;50.196;8.096;2024-02-23T14:49:38;6.60;;;0.70;;
15982;SDS011;14442;50.196;8.096;2024-02-23T14:52:05;4.83;;;0.73;;
15982;SDS011;14442;50.196;8.096;2024-02-23T14:54:32;4.23;;;0.80;;
15982;SDS011;14442;50.196;8.096;2024-02-23T14:57:01;5.13;;;1.10;;
15982;SDS011;14442;50.196;8.096;2024-02-23T14:59:28;2.00;;;0.50;;
15982;SDS011;14442;50.196;8.096;2024-02-23T15:01:55;2.53;;;0.40;;
15982;SDS011;14442;50.196;8.096;2024-02-23T15:04:22;2.23;;;0.83;;
15982;SDS011;14442;50.196;8.096;2024-02-23T15:06:49;1.83;;;0.60;;
15982;SDS011;14442;50.196;8.096;2024-02-23T15:09:15;1.83;;;0.80;;
15982;SDS011;14442;50.196;8.096;2024-02-23T15:11:42;1.70;;;0.80;;
15982;SDS011;14442;50.196;8.096;2024-02-23T15:14:11;5.27;;;0.40;;
15982;SDS011;14442;50.196;8.096;2024-02-23T15:16:40;1.93;;;0.50;;
15982;SDS011;14442;50.196;8.096;2024-02-23T15:19:07;2.00;;;0.60;;
15982;SDS011;14442;50.196;8.096;2024-02-23T15:21:33;1.30;;;0.43;;
15982;SDS011;14442;50.196;8.096;2024-02-23T15:24:05;0.53;;;0.30;;
15982;SDS011;14442;50.196;8.096;2024-02-23T15:26:32;0.70;;;0.50;;
15982;SDS011;14442;50.196;8.096;2024-02-23T15:28:59;0.83;;;0.40;;
15982;SDS011;14442;50.196;8.096;2024-02-23T15:31:29;0.90;;;0.30;;
15982;SDS011;14442;50.196;8.096;2024-02-23T15:33:56;1.70;;;0.60;;
15982;SDS011;14442;50.196;8.096;2024-02-23T15:36:24;1.83;;;0.50;;
15982;SDS011;14442;50.196;8.096;2024-02-23T15:38:51;1.10;;;0.60;;
15982;SDS011;14442;50.196;8.096;2024-02-23T15:41:23;1.27;;;0.40;;
15982;SDS011;14442;50.196;8.096;2024-02-23T15:43:50;1.20;;;0.60;;
15982;SDS011;14442;50.196;8.096;2024-02-23T15:46:16;1.53;;;0.60;;
15982;SDS011;14442;50.196;8.096;2024-02-23T15:48:44;1.70;;;0.97;;
15982;SDS011;14442;50.196;8.096;2024-02-23T15:51:11;1.93;;;0.73;;
15982;SDS011;14442;50.196;8.096;2024-02-23T15:53:38;1.73;;;0.60;;
15982;SDS011;14442;50.196;8.096;2024-02-23T15:56:05;4.33;;;0.93;;
15982;SDS011;14442;50.196;8.096;2024-02-23T15:58:32;1.77;;;0.70;;
15982;SDS011;14442;50.196;8.096;2024-02-23T16:00:58;1.47;;;0.60;;
15982;SDS011;14442;50.196;8.096;2024-02-23T16:03:24;2.67;;;0.70;;
15982;SDS011;14442;50.196;8.096;2024-02-23T16:05:53;3.03;;;1.10;;
15982;SDS011;14442;50.196;8.096;2024-02-23T16:08:20;3.73;;;1.20;;
15982;SDS011;14442;50.196;8.096;2024-02-23T16:11:05;2.60;;;1.27;;
15982;SDS011;14442;50.196;8.096;2024-02-23T16:13:31;2.40;;;1.30;;
15982;SDS011;14442;50.196;8.096;2024-02-23T16:15:58;3.07;;;1.60;;
15982;SDS011;14442;50.196;8.096;2024-02-23T16:18:25;2.67;;;1.50;;
15982;SDS011;14442;50.196;8.096;2024-02-23T16:20:53;2.77;;;1.70;;
15982;SDS011;14442;50.196;8.096;2024-02-23T16:23:21;2.47;;;1.47;;
15982;SDS011;14442;50.196;8.096;2024-02-23T16:25:48;1.87;;;1.70;;
15982;SDS011;14442;50.196;8.096;2024-02-23T16:28:15;2.60;;;2.00;;
15982;SDS011;14442;50.196;8.096;2024-02-23T16:30:42;2.63;;;2.33;;
15982;SDS011;14442;50.196;8.096;2024-02-23T16:33:09;2.23;;;2.03;;
15982;SDS011;14442;50.196;8.096;2024-02-23T16:35:35;3.00;;;2.20;;
15982;SDS011;14442;50.196;8.096;2024-02-23T16:38:04;2.33;;;1.90;;
15982;SDS011;14442;50.196;8.096;2024-02-23T16:40:31;1.90;;;1.70;;
15982;SDS011;14442;50.196;8.096;2024-02-23T16:42:58;1.90;;;1.73;;
15982;SDS011;14442;50.196;8.096;2024-02-23T16:45:25;2.73;;;1.50;;
15982;SDS011;14442;50.196;8.096;2024-02-23T16:47:53;3.43;;;1.97;;
15982;SDS011;14442;50.196;8.096;2024-02-23T16:50:19;2.83;;;1.90;;
15982;SDS011;14442;50.196;8.096;2024-02-23T16:52:46;2.27;;;1.63;;
15982;SDS011;14442;50.196;8.096;2024-02-23T16:55:15;2.23;;;1.10;;
15982;SDS011;14442;50.196;8.096;2024-02-23T16:57:42;0.93;;;0.93;;
15982;SDS011;14442;50.196;8.096;2024-02-23T17:00:09;1.53;;;1.10;;
15982;SDS011;14442;50.196;8.096;2024-02-23T17:02:36;0.90;;;0.77;;
15982;SDS011;14442;50.196;8.096;2024-02-23T17:05:04;1.47;;;0.90;;
15982;SDS011;14442;50.196;8.096;2024-02-23T17:07:30;2.33;;;1.00;;
15982;SDS011;14442;50.196;8.096;2024-02-23T17:09:57;0.97;;;0.60;;
15982;SDS011;14442;50.196;8.096;2024-02-23T17:12:25;1.10;;;0.67;;
15982;SDS011;14442;50.196;8.096;2024-02-23T17:14:52;0.90;;;0.60;;
15982;SDS011;14442;50.196;8.096;2024-02-23T17:17:19;0.93;;;0.83;;
15982;SDS011;14442;50.196;8.096;2024-02-23T17:19:46;1.47;;;0.60;;
15982;SDS011;14442;50.196;8.096;2024-02-23T17:22:12;1.63;;;0.63;;
15982;SDS011;14442;50.196;8.096;2024-02-23T17:24:39;1.27;;;1.00;;
15982;SDS011;14442;50.196;8.096;2024-02-23T17:27:06;3.03;;;1.00;;
15982;SDS011;14442;50.196;8.096;2024-02-23T17:29:35;0.60;;;0.57;;
15982;SDS011;14442;50.196;8.096;2024-02-23T17:32:02;2.23;;;1.13;;
15982;SDS011;14442;50.196;8.096;2024-02-23T17:34:28;2.17;;;1.40;;
15982;SDS011;14442;50.196;8.096;2024-02-23T17:36:55;4.20;;;3.33;;
15982;SDS011;14442;50.196;8.096;2024-02-23T17:39:22;3.73;;;2.47;;
15982;SDS011;14442;50.196;8.096;2024-02-23T17:41:49;5.13;;;3.13;;
15982;SDS011;14442;50.196;8.096;2024-02-23T17:44:16;3.83;;;2.83;;
15982;SDS011;14442;50.196;8.096;2024-02-23T17:46:45;2.50;;;2.27;;
15982;SDS011;14442;50.196;8.096;2024-02-23T17:49:12;3.20;;;2.30;;
15982;SDS011;14442;50.196;8.096;2024-02-23T17:51:40;2.63;;;2.10;;
15982;SDS011;14442;50.196;8.096;2024-02-23T17:54:07;3.97;;;2.60;;
15982;SDS011;14442;50.196;8.096;2024-02-23T17:56:33;3.53;;;3.23;;
15982;SDS011;14442;50.196;8.096;2024-02-23T17:59:00;3.07;;;2.30;;
15982;SDS011;14442;50.196;8.096;2024-02-23T18:01:27;2.80;;;2.53;;
15982;SDS011;14442;50.196;8.096;2024-02-23T18:03:56;3.10;;;2.80;;
15982;SDS011;14442;50.196;8.096;2024-02-23T18:06:22;2.43;;;2.23;;
15982;SDS011;14442;50.196;8.096;2024-02-23T18:08:49;2.40;;;2.20;;
15982;SDS011;14442;50.196;8.096;2024-02-23T18:11:16;3.00;;;1.97;;
15982;SDS011;14442;50.196;8.096;2024-02-23T18:13:44;2.50;;;1.97;;
15982;SDS011;14442;50.196;8.096;2024-02-23T18:16:12;3.57;;;2.53;;
15982;SDS011;14442;50.196;8.096;2024-02-23T18:18:43;3.37;;;2.27;;
15982;SDS011;14442;50.196;8.096;2024-02-23T18:21:11;3.63;;;2.80;;
15982;SDS011;14442;50.196;8.096;2024-02-23T18:23:42;2.57;;;2.20;;
15982;SDS011;14442;50.196;8.096;2024-02-23T18:26:10;3.03;;;2.63;;
15982;SDS011;14442;50.196;8.096;2024-02-23T18:28:38;3.20;;;2.80;;
15982;SDS011;14442;50.196;8.096;2024-02-23T18:31:05;3.53;;;2.50;;
15982;SDS011;14442;50.196;8.096;2024-02-23T18:33:31;2.80;;;1.90;;
15982;SDS011;14442;50.196;8.096;2024-02-23T18:35:58;3.97;;;2.20;;
15982;SDS011;14442;50.196;8.096;2024-02-23T18:38:27;3.43;;;1.70;;
15982;SDS011;14442;50.196;8.096;2024-02-23T18:40:54;2.30;;;1.80;;
15982;SDS011;14442;50.196;8.096;2024-02-23T18:43:23;1.80;;;1.70;;
15982;SDS011;14442;50.196;8.096;2024-02-23T18:45:49;1.57;;;1.30;;
15982;SDS011;14442;50.196;8.096;2024-02-23T18:48:16;1.67;;;1.50;;
15982;SDS011;14442;50.196;8.096;2024-02-23T18:50:44;1.63;;;1.20;;
15982;SDS011;14442;50.196;8.096;2024-02-23T18:53:11;1.67;;;1.10;;
15982;SDS011;14442;50.196;8.096;2024-02-23T18:55:39;1.67;;;1.43;;
15982;SDS011;14442;50.196;8.096;2024-02-23T18:58:06;3.40;;;1.30;;
15982;SDS011;14442;50.196;8.096;2024-02-23T19:00:33;2.93;;;1.53;;
15982;SDS011;14442;50.196;8.096;2024-02-23T19:03:00;0.97;;;0.87;;
15982;SDS011;14442;50.196;8.096;2024-02-23T19:05:26;1.63;;;1.10;;
15982;SDS011;14442;50.196;8.096;2024-02-23T19:07:53;1.43;;;1.10;;
15982;SDS011;14442;50.196;8.096;2024-02-23T19:10:20;3.93;;;1.40;;
15982;SDS011;14442;50.196;8.096;2024-02-23T19:12:48;2.93;;;1.50;;
15982;SDS011;14442;50.196;8.096;2024-02-23T19:15:15;2.30;;;2.10;;
15982;SDS011;14442;50.196;8.096;2024-02-23T19:17:41;2.73;;;1.83;;
15982;SDS011;14442;50.196;8.096;2024-02-23T19:20:09;1.43;;;1.33;;
15982;SDS011;14442;50.196;8.096;2024-02-23T19:22:36;1.63;;;1.37;;
15982;SDS011;14442;50.196;8.096;2024-02-23T19:25:03;2.23;;;1.77;;
15982;SDS011;14442;50.196;8.096;2024-02-23T19:27:31;3.97;;;2.23;;
15982;SDS011;14442;50.196;8.096;2024-02-23T19:29:59;2.70;;;1.60;;
15982;SDS011;14442;50.196;8.096;2024-02-23T19:32:28;3.47;;;1.73;;
15982;SDS011;14442;50.196;8.096;2024-02-23T19:34:55;1.60;;;1.50;;
15982;SDS011;14442;50.196;8.096;2024-02-23T19:37:21;1.90;;;1.70;;
15982;SDS011;14442;50.196;8.096;2024-02-23T19:39:49;1.67;;;1.57;;
15982;SDS011;14442;50.196;8.096;2024-02-23T19:42:16;1.90;;;1.80;;
15982;SDS011;14442;50.196;8.096;2024-02-23T19:44:43;1.23;;;1.13;;
15982;SDS011;14442;50.196;8.096;2024-02-23T19:47:11;2.00;;;1.50;;
15982;SDS011;14442;50.196;8.096;2024-02-23T19:49:38;1.60;;;1.50;;
15982;SDS011;14442;50.196;8.096;2024-02-23T19:52:05;1.60;;;1.50;;
15982;SDS011;14442;50.196;8.096;2024-02-23T19:54:34;1.53;;;1.43;;
15982;SDS011;14442;50.196;8.096;2024-02-23T19:57:01;2.30;;;1.50;;
15982;SDS011;14442;50.196;8.096;2024-02-23T19:59:28;1.97;;;1.50;;
15982;SDS011;14442;50.196;8.096;2024-02-23T20:01:57;1.87;;;1.20;;
15982;SDS011;14442;50.196;8.096;2024-02-23T20:04:25;1.67;;;1.40;;
15982;SDS011;14442;50.196;8.096;2024-02-23T20:06:52;1.13;;;1.10;;
15982;SDS011;14442;50.196;8.096;2024-02-23T20:09:20;1.97;;;1.37;;
15982;SDS011;14442;50.196;8.096;2024-02-23T20:11:47;1.50;;;1.20;;
15982;SDS011;14442;50.196;8.096;2024-02-23T20:14:14;3.30;;;1.20;;
15982;SDS011;14442;50.196;8.096;2024-02-23T20:16:44;1.50;;;0.90;;
15982;SDS011;14442;50.196;8.096;2024-02-23T20:19:11;1.13;;;1.00;;
15982;SDS011;14442;50.196;8.096;2024-02-23T20:21:39;1.27;;;1.10;;
15982;SDS011;14442;50.196;8.096;2024-02-23T20:24:06;1.13;;;1.10;;
15982;SDS011;14442;50.196;8.096;2024-02-23T20:26:34;0.90;;;0.80;;
15982;SDS011;14442;50.196;8.096;2024-02-23T20:29:01;1.50;;;0.80;;
15982;SDS011;14442;50.196;8.096;2024-02-23T20:31:28;0.90;;;0.80;;
15982;SDS011;14442;50.196;8.096;2024-02-23T20:33:55;2.20;;;0.70;;
15982;SDS011;14442;50.196;8.096;2024-02-23T20:36:21;1.30;;;0.77;;